PWSweather.com
Personal Weather Stations
Station Observations
JEDRZEJOW
Kielce, JedrzejowPL 28-300

KielceJedrzejowPL 28-300

Lat: 50.64416885, Lon: 20.30450058

Elevation: 790

Station Type: WH1080

Latest ConditionsUpdated 7:00:00 PM GMT+01:01 Tuesday, Nov 12, 2019
Currently Today's Max Today's Min Today's Average
Temperature 49.1°F9.5°C 50.9°F10.5°C 36.9°F2.7°C 43.9°F6.6°C
Dew Point 43.2°F6.2°C 43.9°F6.6°C 34.5°F1.4°C 39.0°F3.9°C
Winds 5.5 mph E8.9 kmh E 7.7 mph -12.4 kmh - - 4.2 mph 6.8 kmh
Wind Gusts 9.8 mph15.8 kmh 13.0 mph20.9 kmh - -
Humidity 80% 96% 71% 83%
Pressure 29.70 in1005.8 mb 29.89 in1012.2 mb 29.70 in1005.8 mb -
Precipitation - 0.02 in0.5 mm - -
Hour Temp Dew Point Humidity Winds Wind Gusts Pressure Precip Precip Rate Daily Precip Total
07:00 PM 49.1°F9.5°C 43.2°F6.2°C 80% 5.5 mph E8.9 kmh E 9.8 mph15.8 kmh 29.70 in1005.8 mb 0.02 in0.5 mm 0.00 in0.0 mm 0.02 in0.5 mm
06:45 PM 49.1°F9.5°C 42.9°F6.1°C 79% 5.5 mph E8.9 kmh E 9.8 mph15.8 kmh 29.70 in1005.8 mb 0.02 in0.5 mm 0.04 in1.0 mm 0.02 in0.5 mm
06:30 PM 49.1°F9.5°C 42.2°F5.7°C 77% 3.5 mph SE5.6 kmh SE 6.9 mph11.1 kmh 29.71 in1006.1 mb 0.01 in0.3 mm 0.04 in1.0 mm 0.01 in0.3 mm
06:15 PM 49.3°F9.6°C 41.7°F5.4°C 75% 4.6 mph ESE7.4 kmh ESE 7.6 mph12.2 kmh 29.71 in1006.1 mb 0.00 in0.0 mm 0.00 in0.0 mm 0.00 in0.0 mm
06:00 PM 49.1°F9.5°C 41.5°F5.3°C 75% 4.4 mph ESE7.1 kmh ESE 6.9 mph11.1 kmh 29.72 in1006.4 mb 0.00 in0.0 mm 0.00 in0.0 mm 0.00 in0.0 mm
05:45 PM 49.1°F9.5°C 41.5°F5.3°C 75% 5.4 mph E8.7 kmh E 8.3 mph13.4 kmh 29.73 in1006.8 mb 0.00 in0.0 mm 0.00 in0.0 mm 0.00 in0.0 mm
05:30 PM 48.9°F9.4°C 41.3°F5.2°C 75% 5.8 mph E9.3 kmh E 9.2 mph14.8 kmh 29.73 in1006.8 mb 0.00 in0.0 mm 0.00 in0.0 mm 0.00 in0.0 mm
05:15 PM 49.1°F9.5°C 41.5°F5.3°C 75% 4.0 mph E6.4 kmh E 6.9 mph11.1 kmh 29.73 in1006.8 mb 0.00 in0.0 mm 0.00 in0.0 mm 0.00 in0.0 mm
05:00 PM 49.1°F9.5°C 41.2°F5.1°C 74% 4.5 mph E7.2 kmh E 7.6 mph12.2 kmh 29.74 in1007.1 mb 0.00 in0.0 mm 0.00 in0.0 mm 0.00 in0.0 mm
04:45 PM 49.3°F9.6°C 41.3°F5.2°C 74% 6.2 mph E10.0 kmh E 11.4 mph18.3 kmh 29.75 in1007.5 mb 0.00 in0.0 mm 0.00 in0.0 mm 0.00 in0.0 mm
04:30 PM 49.3°F9.6°C 41.3°F5.2°C 74% 6.5 mph E10.5 kmh E 9.8 mph15.8 kmh 29.76 in1007.8 mb 0.00 in0.0 mm 0.00 in0.0 mm 0.00 in0.0 mm
04:15 PM 49.5°F9.7°C 41.5°F5.3°C 74% 6.7 mph E10.8 kmh E 9.8 mph15.8 kmh 29.77 in1008.1 mb 0.00 in0.0 mm 0.00 in0.0 mm 0.00 in0.0 mm
04:00 PM 49.3°F9.6°C 41.3°F5.2°C 74% 7.7 mph E12.4 kmh E 13.0 mph20.9 kmh 29.77 in1008.1 mb 0.00 in0.0 mm 0.00 in0.0 mm 0.00 in0.0 mm
03:45 PM 49.3°F9.6°C 41.3°F5.2°C 74% 4.4 mph ESE7.1 kmh ESE 8.3 mph13.4 kmh 29.77 in1008.1 mb 0.00 in0.0 mm 0.00 in0.0 mm 0.00 in0.0 mm
03:30 PM 49.5°F9.7°C 41.5°F5.3°C 74% 5.8 mph ESE9.3 kmh ESE 9.8 mph15.8 kmh 29.77 in1008.1 mb 0.00 in0.0 mm 0.00 in0.0 mm 0.00 in0.0 mm
03:15 PM 49.6°F9.8°C 41.7°F5.4°C 74% 3.8 mph ESE6.1 kmh ESE 7.6 mph12.2 kmh 29.78 in1008.5 mb 0.00 in0.0 mm 0.00 in0.0 mm 0.00 in0.0 mm
03:00 PM 50.0°F10.0°C 41.7°F5.4°C 73% 4.8 mph E7.7 kmh E 8.3 mph13.4 kmh 29.78 in1008.5 mb 0.00 in0.0 mm 0.00 in0.0 mm 0.00 in0.0 mm
02:45 PM 50.2°F10.1°C 41.5°F5.3°C 72% 6.4 mph E10.3 kmh E 9.2 mph14.8 kmh 29.78 in1008.5 mb 0.00 in0.0 mm 0.00 in0.0 mm 0.00 in0.0 mm
02:30 PM 50.4°F10.2°C 41.3°F5.2°C 71% 6.2 mph E10.0 kmh E 9.8 mph15.8 kmh 29.78 in1008.5 mb 0.00 in0.0 mm 0.00 in0.0 mm 0.00 in0.0 mm
02:15 PM 50.4°F10.2°C 41.3°F5.2°C 71% 6.6 mph SE10.6 kmh SE 13.0 mph20.9 kmh 29.78 in1008.5 mb 0.00 in0.0 mm 0.00 in0.0 mm 0.00 in0.0 mm
02:00 PM 50.4°F10.2°C 41.3°F5.2°C 71% 6.9 mph ESE11.1 kmh ESE 13.0 mph20.9 kmh 29.78 in1008.5 mb 0.00 in0.0 mm 0.00 in0.0 mm 0.00 in0.0 mm
01:45 PM 50.5°F10.3°C 41.5°F5.3°C 71% 6.1 mph E9.8 kmh E 10.7 mph17.2 kmh 29.78 in1008.5 mb 0.00 in0.0 mm 0.00 in0.0 mm 0.00 in0.0 mm
01:30 PM 50.7°F10.4°C 41.7°F5.4°C 71% 6.3 mph E10.1 kmh E 9.8 mph15.8 kmh 29.78 in1008.5 mb 0.00 in0.0 mm 0.00 in0.0 mm 0.00 in0.0 mm
01:15 PM 50.9°F10.5°C 41.8°F5.4°C 71% 5.2 mph E8.4 kmh E 9.2 mph14.8 kmh 29.80 in1009.1 mb 0.00 in0.0 mm 0.00 in0.0 mm 0.00 in0.0 mm
01:00 PM 50.9°F10.5°C 42.2°F5.7°C 72% 5.7 mph ESE9.2 kmh ESE 9.8 mph15.8 kmh 29.79 in1008.8 mb 0.00 in0.0 mm 0.00 in0.0 mm 0.00 in0.0 mm
12:45 PM 50.9°F10.5°C 42.2°F5.7°C 72% 6.6 mph SE10.6 kmh SE 10.7 mph17.2 kmh 29.80 in1009.1 mb 0.00 in0.0 mm 0.00 in0.0 mm 0.00 in0.0 mm
12:30 PM 50.7°F10.4°C 42.0°F5.6°C 72% 7.0 mph ESE11.3 kmh ESE 9.8 mph15.8 kmh 29.80 in1009.1 mb 0.00 in0.0 mm 0.00 in0.0 mm 0.00 in0.0 mm
12:15 PM 50.5°F10.3°C 41.8°F5.4°C 72% 4.7 mph SE7.6 kmh SE 9.2 mph14.8 kmh 29.81 in1009.5 mb 0.00 in0.0 mm 0.00 in0.0 mm 0.00 in0.0 mm
12:00 PM 50.4°F10.2°C 42.0°F5.6°C 73% 4.5 mph SE7.2 kmh SE 8.3 mph13.4 kmh 29.82 in1009.8 mb 0.00 in0.0 mm 0.00 in0.0 mm 0.00 in0.0 mm
11:45 AM 50.2°F10.1°C 41.5°F5.3°C 72% 6.0 mph ESE9.7 kmh ESE 9.2 mph14.8 kmh 29.82 in1009.8 mb 0.00 in0.0 mm 0.00 in0.0 mm 0.00 in0.0 mm
11:30 AM 50.0°F10.0°C 41.7°F5.4°C 73% 5.9 mph E9.5 kmh E 9.2 mph14.8 kmh 29.82 in1009.8 mb 0.00 in0.0 mm 0.00 in0.0 mm 0.00 in0.0 mm
11:15 AM 50.0°F10.0°C 42.0°F5.6°C 74% 3.5 mph E5.6 kmh E 8.3 mph13.4 kmh 29.82 in1009.8 mb 0.00 in0.0 mm 0.00 in0.0 mm 0.00 in0.0 mm
11:00 AM 50.0°F10.0°C 41.7°F5.4°C 73% 4.4 mph SE7.1 kmh SE 7.6 mph12.2 kmh 29.82 in1009.8 mb 0.00 in0.0 mm 0.00 in0.0 mm 0.00 in0.0 mm
10:45 AM 50.0°F10.0°C 41.7°F5.4°C 73% 5.4 mph E8.7 kmh E 10.7 mph17.2 kmh 29.83 in1010.2 mb 0.00 in0.0 mm 0.00 in0.0 mm 0.00 in0.0 mm
10:30 AM 50.0°F10.0°C 43.4°F6.3°C 78% 5.1 mph SE8.2 kmh SE 8.3 mph13.4 kmh 29.84 in1010.5 mb 0.00 in0.0 mm 0.00 in0.0 mm 0.00 in0.0 mm
10:15 AM 48.4°F9.1°C 43.1°F6.2°C 82% 3.7 mph SE6.0 kmh SE 6.0 mph9.7 kmh 29.84 in1010.5 mb 0.00 in0.0 mm 0.00 in0.0 mm 0.00 in0.0 mm
10:00 AM 47.1°F8.4°C 43.7°F6.5°C 88% 5.5 mph E8.9 kmh E 9.2 mph14.8 kmh 29.84 in1010.5 mb 0.00 in0.0 mm 0.00 in0.0 mm 0.00 in0.0 mm
09:45 AM 46.2°F7.9°C 43.7°F6.5°C 91% 4.4 mph E7.1 kmh E 6.9 mph11.1 kmh 29.83 in1010.2 mb 0.00 in0.0 mm 0.00 in0.0 mm 0.00 in0.0 mm
09:30 AM 45.0°F7.2°C 43.9°F6.6°C 96% 4.1 mph E6.6 kmh E 9.2 mph14.8 kmh 29.83 in1010.2 mb 0.00 in0.0 mm 0.00 in0.0 mm 0.00 in0.0 mm
09:15 AM 43.7°F6.5°C 42.6°F5.9°C 96% 4.7 mph E7.6 kmh E 7.6 mph12.2 kmh 29.83 in1010.2 mb 0.00 in0.0 mm 0.00 in0.0 mm 0.00 in0.0 mm
09:00 AM 42.4°F5.8°C 41.4°F5.2°C 96% 4.4 mph E7.1 kmh E 9.8 mph15.8 kmh 29.83 in1010.2 mb 0.00 in0.0 mm 0.00 in0.0 mm 0.00 in0.0 mm
08:45 AM 40.8°F4.9°C 39.5°F4.2°C 95% 3.4 mph ENE5.5 kmh ENE 6.0 mph9.7 kmh 29.83 in1010.2 mb 0.00 in0.0 mm 0.00 in0.0 mm 0.00 in0.0 mm
08:30 AM 39.7°F4.3°C 38.2°F3.4°C 94% 2.8 mph E4.5 kmh E 4.5 mph7.2 kmh 29.84 in1010.5 mb 0.00 in0.0 mm 0.00 in0.0 mm 0.00 in0.0 mm
08:15 AM 39.2°F4.0°C 37.6°F3.1°C 94% 2.1 mph E3.4 kmh E 3.8 mph6.1 kmh 29.84 in1010.5 mb 0.00 in0.0 mm 0.00 in0.0 mm 0.00 in0.0 mm
08:00 AM 38.7°F3.7°C 36.8°F2.7°C 93% 2.7 mph E4.3 kmh E 5.4 mph8.7 kmh 29.84 in1010.5 mb 0.00 in0.0 mm 0.00 in0.0 mm 0.00 in0.0 mm
07:45 AM 38.5°F3.6°C 36.6°F2.6°C 93% 1.7 mph E2.7 kmh E 3.8 mph6.1 kmh 29.84 in1010.5 mb 0.00 in0.0 mm 0.00 in0.0 mm 0.00 in0.0 mm
07:30 AM 38.3°F3.5°C 36.5°F2.5°C 93% 1.5 mph E2.4 kmh E 3.1 mph5.0 kmh 29.84 in1010.5 mb 0.00 in0.0 mm 0.00 in0.0 mm 0.00 in0.0 mm
07:15 AM 38.3°F3.5°C 36.5°F2.5°C 93% 3.1 mph E5.0 kmh E 6.0 mph9.7 kmh 29.84 in1010.5 mb 0.00 in0.0 mm 0.00 in0.0 mm 0.00 in0.0 mm
07:00 AM 38.1°F3.4°C 36.3°F2.4°C 93% 2.7 mph SE4.3 kmh SE 6.0 mph9.7 kmh 29.84 in1010.5 mb 0.00 in0.0 mm 0.00 in0.0 mm 0.00 in0.0 mm
06:45 AM 38.1°F3.4°C 36.3°F2.4°C 93% 2.3 mph SE3.7 kmh SE 4.5 mph7.2 kmh 29.83 in1010.2 mb 0.00 in0.0 mm 0.00 in0.0 mm 0.00 in0.0 mm
06:30 AM 37.9°F3.3°C 36.1°F2.3°C 93% 3.8 mph ESE6.1 kmh ESE 6.9 mph11.1 kmh 29.82 in1009.8 mb 0.00 in0.0 mm 0.00 in0.0 mm 0.00 in0.0 mm
06:15 AM 37.8°F3.2°C 35.9°F2.2°C 93% 3.8 mph E6.1 kmh E 6.0 mph9.7 kmh 29.82 in1009.8 mb 0.00 in0.0 mm 0.00 in0.0 mm 0.00 in0.0 mm
06:00 AM 37.4°F3.0°C 35.3°F1.8°C 92% 2.8 mph ESE4.5 kmh ESE 5.4 mph8.7 kmh 29.81 in1009.5 mb 0.00 in0.0 mm 0.00 in0.0 mm 0.00 in0.0 mm
05:45 AM 37.4°F3.0°C 35.3°F1.8°C 92% 3.5 mph E5.6 kmh E 5.4 mph8.7 kmh 29.82 in1009.8 mb 0.00 in0.0 mm 0.00 in0.0 mm 0.00 in0.0 mm
05:30 AM 37.2°F2.9°C 35.1°F1.7°C 92% 1.3 mph E2.1 kmh E 3.8 mph6.1 kmh 29.82 in1009.8 mb 0.00 in0.0 mm 0.00 in0.0 mm 0.00 in0.0 mm
05:15 AM 37.2°F2.9°C 35.1°F1.7°C 92% 1.7 mph E2.7 kmh E 3.1 mph5.0 kmh 29.82 in1009.8 mb 0.00 in0.0 mm 0.00 in0.0 mm 0.00 in0.0 mm
05:00 AM 37.2°F2.9°C 35.1°F1.7°C 92% 2.1 mph ESE3.4 kmh ESE 3.8 mph6.1 kmh 29.83 in1010.2 mb 0.00 in0.0 mm 0.00 in0.0 mm 0.00 in0.0 mm
04:45 AM 36.9°F2.7°C 34.5°F1.4°C 91% 2.8 mph SE4.5 kmh SE 5.4 mph8.7 kmh 29.83 in1010.2 mb 0.00 in0.0 mm 0.00 in0.0 mm 0.00 in0.0 mm
04:30 AM 36.9°F2.7°C 34.5°F1.4°C 91% 1.5 mph E2.4 kmh E 3.1 mph5.0 kmh 29.84 in1010.5 mb 0.00 in0.0 mm 0.00 in0.0 mm 0.00 in0.0 mm
04:15 AM 36.9°F2.7°C 34.5°F1.4°C 91% 2.0 mph ESE3.2 kmh ESE 4.5 mph7.2 kmh 29.84 in1010.5 mb 0.00 in0.0 mm 0.00 in0.0 mm 0.00 in0.0 mm
04:00 AM 36.9°F2.7°C 34.5°F1.4°C 91% 2.5 mph ESE4.0 kmh ESE 3.8 mph6.1 kmh 29.84 in1010.5 mb 0.00 in0.0 mm 0.00 in0.0 mm 0.00 in0.0 mm
03:45 AM 37.0°F2.8°C 34.7°F1.5°C 91% 3.3 mph ESE5.3 kmh ESE 6.0 mph9.7 kmh 29.84 in1010.5 mb 0.00 in0.0 mm 0.00 in0.0 mm 0.00 in0.0 mm
03:30 AM 37.0°F2.8°C 34.7°F1.5°C 91% 4.3 mph E6.9 kmh E 7.6 mph12.2 kmh 29.84 in1010.5 mb 0.00 in0.0 mm 0.00 in0.0 mm 0.00 in0.0 mm
03:15 AM 37.2°F2.9°C 34.8°F1.6°C 91% 3.3 mph SE5.3 kmh SE 6.0 mph9.7 kmh 29.84 in1010.5 mb 0.00 in0.0 mm 0.00 in0.0 mm 0.00 in0.0 mm
03:00 AM 37.2°F2.9°C 34.8°F1.6°C 91% 3.9 mph E6.3 kmh E 6.0 mph9.7 kmh 29.85 in1010.8 mb 0.00 in0.0 mm 0.00 in0.0 mm 0.00 in0.0 mm
02:45 AM 37.2°F2.9°C 34.8°F1.6°C 91% 3.4 mph E5.5 kmh E 6.0 mph9.7 kmh 29.84 in1010.5 mb 0.00 in0.0 mm 0.00 in0.0 mm 0.00 in0.0 mm
02:30 AM 37.2°F2.9°C 34.8°F1.6°C 91% 2.8 mph E4.5 kmh E 5.4 mph8.7 kmh 29.85 in1010.8 mb 0.00 in0.0 mm 0.00 in0.0 mm 0.00 in0.0 mm
02:15 AM 37.4°F3.0°C 34.7°F1.5°C 90% 3.6 mph E5.8 kmh E 6.0 mph9.7 kmh 29.85 in1010.8 mb 0.00 in0.0 mm 0.00 in0.0 mm 0.00 in0.0 mm
02:00 AM 37.4°F3.0°C 34.7°F1.5°C 90% 3.1 mph E5.0 kmh E 5.4 mph8.7 kmh 29.85 in1010.8 mb 0.00 in0.0 mm 0.00 in0.0 mm 0.00 in0.0 mm
01:45 AM 37.2°F2.9°C 34.6°F1.4°C 90% 2.9 mph E4.7 kmh E 5.4 mph8.7 kmh 29.86 in1011.2 mb 0.00 in0.0 mm 0.00 in0.0 mm 0.00 in0.0 mm
01:30 AM 37.6°F3.1°C 34.9°F1.6°C 90% 3.2 mph E5.1 kmh E 5.4 mph8.7 kmh 29.86 in1011.2 mb 0.00 in0.0 mm 0.00 in0.0 mm 0.00 in0.0 mm
01:15 AM 37.8°F3.2°C 35.1°F1.7°C 90% 2.3 mph E3.7 kmh E 3.8 mph6.1 kmh 29.86 in1011.2 mb 0.00 in0.0 mm 0.00 in0.0 mm 0.00 in0.0 mm
01:00 AM 37.9°F3.3°C 35.3°F1.8°C 90% 3.3 mph SE5.3 kmh SE 6.9 mph11.1 kmh 29.86 in1011.2 mb 0.00 in0.0 mm 0.00 in0.0 mm 0.00 in0.0 mm
12:45 AM 38.3°F3.5°C 35.6°F2.0°C 90% 4.2 mph ESE6.8 kmh ESE 6.9 mph11.1 kmh 29.86 in1011.2 mb 0.00 in0.0 mm 0.00 in0.0 mm 0.00 in0.0 mm
12:30 AM 38.3°F3.5°C 35.6°F2.0°C 90% 4.9 mph E7.9 kmh E 9.8 mph15.8 kmh 29.87 in1011.5 mb 0.00 in0.0 mm 0.00 in0.0 mm 0.00 in0.0 mm
12:15 AM 38.7°F3.7°C 36.0°F2.2°C 90% 4.8 mph E7.7 kmh E 6.9 mph11.1 kmh 29.88 in1011.9 mb 0.00 in0.0 mm 0.00 in0.0 mm 0.00 in0.0 mm
12:00 AM 39.0°F3.9°C 36.3°F2.4°C 90% 4.8 mph ESE7.7 kmh ESE 7.6 mph12.2 kmh 29.89 in1012.2 mb 0.00 in0.0 mm 0.00 in0.0 mm 0.00 in0.0 mm